Terminal Aerodrome Forecast
Issued by NWS

Home | Current Version | Previous Version | Graphics & Text | Print | Product List | Glossary On
Versions: 1 2 3 4 5 6 7 8 9 10 11 12 13 14 15 16 17
000
FTUS43 KBIS 221800 AAA
TAFDIK
TAF AMD
KDIK 221849Z 2219/2318 31016G23KT 1/4SM SN FZFG OVC009
      TEMPO 2219/2221 1SM -SN BR OVC011
     FM222100 33019G24KT 1/2SM -SN BLSN OVC008
     FM230600 34015G25KT 2SM -SN OVC008=

USA.gov is the U.S. government's official web portal to all federal, state and local government web resources and services.